Flight Track Log - Related Links

Times and Time Zones

All times are in EDT time to prevent confusion due to time zone crossing. See the N5349M flight status page for this flight to view local times or setup timezone preferences in your user account.

Time Position Orientation Groundspeed Altitude Reporting Facility
EDT Latitude Longitude Course Direction KTS MPH feet Rate Location/Type
Wed 03:51:15 PM 38.0169 -84.5325 223° Southwest 114 131 2,700  Level Indianapolis Center
Wed 03:52:17 PM 37.9853 -84.5764 228° Southwest 142 163 3,400 629 Climbing Indianapolis Center
Wed 03:53:19 PM 37.9547 -84.6128 223° Southwest 145 167 4,000 624 Climbing Indianapolis Center
Wed 03:54:22 PM 37.9267 -84.6489 225° Southwest 146 168 4,700 629 Climbing Indianapolis Center
Wed 03:55:00 PM 37.8537 -84.8343 224° Southwest  Level FlightAware Approximate
Wed 03:55:23 PM 37.8994 -84.6867 228° Southwest 146 168 5,300  Level Indianapolis Center
Wed 03:56:00 PM 37.8236 -84.8724 223° Southwest  Level Estimated
Wed 03:56:25 PM 37.8733 -84.7200 225° Southwest 141 162 5,800  Level Indianapolis Center
Wed 03:57:27 PM 37.8383 -84.7656 226° Southwest 146 168 6,000 97 Climbing Indianapolis Center
Wed 03:58:29 PM 37.8081 -84.8067 227° Southwest 155 178 6,000  Level Indianapolis Center
Wed 03:59:31 PM 37.7775 -84.8464 226° Southwest 157 181 6,000  Level Indianapolis Center
Wed 04:00:33 PM 37.7467 -84.8878 227° Southwest 161 185 6,000  Level Indianapolis Center
Wed 04:01:35 PM 37.7150 -84.9278 225° Southwest 161 185 6,000  Level Indianapolis Center
Wed 04:02:38 PM 37.6803 -84.9756 227° Southwest 158 182 6,000  Level Indianapolis Center
Wed 04:03:40 PM 37.6494 -85.0153 226° Southwest 158 182 6,000 48 Level Indianapolis Center
Wed 04:04:42 PM 37.6183 -85.0550 225° Southwest 158 182 6,100 48 Climbing Indianapolis Center
Wed 04:05:44 PM 37.5883 -85.0947 226° Southwest 157 181 6,100 -48 Level Indianapolis Center
Wed 04:06:46 PM 37.5578 -85.1353 226° Southwest 158 182 6,000  Descending Indianapolis Center
Wed 04:07:48 PM 37.5228 -85.1811 226° Southwest 156 180 6,100 48 Climbing Indianapolis Center
Wed 04:08:50 PM 37.4922 -85.2203 225° Southwest 156 180 6,100  Level Indianapolis Center
Wed 04:09:52 PM 37.4614 -85.2603 226° Southwest 158 182 6,100  Level Indianapolis Center
Wed 04:10:54 PM 37.4311 -85.3000 226° Southwest 158 182 6,100  Level Indianapolis Center
Wed 04:11:56 PM 37.4006 -85.3419 227° Southwest 160 184 6,100  Level Indianapolis Center
Wed 04:12:58 PM 37.3683 -85.3811 224° Southwest 161 185 6,100 -48 Level Indianapolis Center
Wed 04:14:00 PM 37.3344 -85.4264 227° Southwest 154 177 6,000  Descending Indianapolis Center
Wed 04:15:03 PM 37.3050 -85.4653 226° Southwest 155 178 6,100 48 Climbing Indianapolis Center
Wed 04:16:05 PM 37.2744 -85.5033 225° Southwest 154 177 6,100  Level Indianapolis Center
Wed 04:17:07 PM 37.2436 -85.5431 226° Southwest 152 175 6,100  Level Indianapolis Center
Wed 04:18:09 PM 37.2147 -85.5800 226° Southwest 153 176 6,100 -48 Level Indianapolis Center
Wed 04:19:11 PM 37.1839 -85.6189 225° Southwest 156 180 6,000  Descending Indianapolis Center
Wed 04:20:13 PM 37.1497 -85.6650 227° Southwest 153 176 6,100 48 Climbing Indianapolis Center
Wed 04:21:16 PM 37.1200 -85.7042 226° Southwest 153 176 6,100  Level Indianapolis Center
Wed 04:22:17 PM 37.0892 -85.7406 223° Southwest 152 175 6,100  Level Indianapolis Center
Wed 04:23:19 PM 37.0597 -85.7803 227° Southwest 153 176 6,100  Level Indianapolis Center
Wed 04:24:21 PM 37.0308 -85.8192 227° Southwest 152 175 6,100  Level Indianapolis Center
Wed 04:25:23 PM 37.0000 -85.8567 224° Southwest 152 175 6,100  Level Indianapolis Center
Wed 04:26:25 PM 36.9703 -85.8953 226° Southwest 153 176 6,100  Level Indianapolis Center
Wed 04:27:27 PM 36.9350 -85.9397 225° Southwest 153 176 6,100  Level Indianapolis Center
Wed 04:28:29 PM 36.9058 -85.9772 226° Southwest 150 173 6,100  Level Indianapolis Center
Wed 04:29:31 PM 36.8764 -86.0142 225° Southwest 149 171 6,100  Level Indianapolis Center
Wed 04:30:34 PM 36.8464 -86.0514 225° Southwest 151 174 6,100  Level Indianapolis Center
Wed 04:31:36 PM 36.8178 -86.0911 228° Southwest 151 174 6,100  Level Indianapolis Center
Wed 04:32:38 PM 36.7869 -86.1272 223° Southwest 151 174 6,100  Level Indianapolis Center
Wed 04:33:17 PM 36.7669 -86.1558 229° Southwest 156 180 6,100 -61 Level Memphis Center
Wed 04:34:17 PM 36.7389 -86.1911 225° Southwest 156 180 6,000  Descending Memphis Center
Wed 04:35:17 PM 36.7089 -86.2289 225° Southwest 156 180 6,100 50 Climbing Memphis Center
Wed 04:36:17 PM 36.6789 -86.2642 223° Southwest 156 180 6,100 -50 Level Memphis Center
Wed 04:37:17 PM 36.6489 -86.3044 227° Southwest 156 180 6,000  Descending Memphis Center
Wed 04:38:17 PM 36.6189 -86.3419 225° Southwest 151 174 6,100 -100 Climbing Memphis Center
Wed 04:39:17 PM 36.5931 -86.3847 233° Southwest 151 174 5,800 -400 Descending Memphis Center
Wed 04:40:17 PM 36.5736 -86.4294 242° Southwest 156 180 5,300 -500 Descending Memphis Center
Wed 04:41:17 PM 36.5522 -86.4769 241° Southwest 156 180 4,800 -600 Descending Memphis Center
Wed 04:42:17 PM 36.5308 -86.5219 239° Southwest 156 180 4,100 -650 Descending Memphis Center
Wed 04:43:17 PM 36.5094 -86.5722 242° Southwest 161 185 3,500 -500 Descending Memphis Center
Wed 04:44:17 PM 36.4878 -86.6194 240° Southwest 161 185 3,100 -450 Descending Memphis Center
Wed 04:45:17 PM 36.4664 -86.6644 239° Southwest 161 185 2,600 -300 Descending Memphis Center
Wed 04:46:17 PM 36.4467 -86.7067 240° Southwest 161 185 2,500  Descending Memphis Center
Wed 04:47:17 PM 36.4292 -86.7461 241° Southwest 161 185 2,600  Climbing Memphis Center
Wed 04:48:48 PM 36.4000 -86.8167 243° Southwest 144 166 2,500  Descending Nashville TRACON
Wed 04:49:54 PM 36.3667 -86.8667 230° Southwest 145 167 2,600 91 Climbing Nashville TRACON

Login

Don't have an account? Register now (free) for customized features, flight alerts, and more!